Time;durP1;ratioP1;P1;durP2;ratioP2;P2;SDS_P1;SDS_P2;PMS_P1;PMS_P2;Temp;Humidity;BMP_temperature;BMP_pressure;BME280_temperature;BME280_humidity;BME280_pressure;Samples;Min_cycle;Max_cycle;Signal;HPM_P1;HPM_P2
2023/07/15 00:01:31;;;;;;;4.60;1.85;;;;;;;22.03;59.18;100376.16;5069647;28;20074;-37
2023/07/15 00:03:57;;;;;;;5.45;1.40;;;;;;;22.10;58.37;100379.22;5069856;28;20089;-37
2023/07/15 00:06:24;;;;;;;4.00;1.48;;;;;;;22.10;58.12;100374.53;5069146;28;20104;-37
2023/07/15 00:08:50;;;;;;;4.22;1.60;;;;;;;22.12;58.41;100374.28;5069127;28;20029;-37
2023/07/15 00:11:26;;;;;;;5.35;1.52;;;;;;;22.10;58.76;100376.47;5057907;28;20033;-37
2023/07/15 00:13:52;;;;;;;3.67;1.33;;;;;;;22.05;59.00;100366.41;5055987;28;20033;-37
2023/07/15 00:16:18;;;;;;;3.10;1.13;;;;;;;22.03;59.21;100378.91;5055989;28;20029;-37
2023/07/15 00:18:45;;;;;;;2.97;1.27;;;;;;;22.02;58.78;100371.78;5055793;28;20025;-37
2023/07/15 00:21:20;;;;;;;2.60;1.25;;;;;;;22.03;59.97;100378.91;5056295;28;20029;-37
2023/07/15 00:23:46;;;;;;;4.35;1.60;;;;;;;22.02;58.64;100374.53;5055683;28;20059;-37
2023/07/15 00:26:11;;;;;;;3.55;1.52;;;;;;;22.00;58.58;100368.50;5055787;28;20095;-37
2023/07/15 00:28:37;;;;;;;2.60;1.30;;;;;;;21.98;58.53;100370.78;5055676;28;20438;-37
2023/07/15 00:31:12;;;;;;;4.82;1.95;;;;;;;21.97;58.79;100371.94;5055476;28;20139;-37
2023/07/15 00:33:37;;;;;;;3.28;1.23;;;;;;;22.00;58.06;100379.53;5055378;28;20469;-37
2023/07/15 00:36:03;;;;;;;3.00;1.40;;;;;;;21.96;58.46;100373.03;5055478;28;20029;-37
2023/07/15 00:38:28;;;;;;;3.58;1.52;;;;;;;21.84;59.32;100352.44;5054727;28;20032;-37
2023/07/15 00:40:53;;;;;;;7.10;1.38;;;;;;;21.93;59.03;100370.94;5055783;28;20028;-37
2023/07/15 00:43:58;;;;;;;3.00;1.60;;;;;;;21.93;59.21;100382.75;5055186;28;20052;-37
2023/07/15 00:46:45;;;;;;;4.80;1.52;;;;;;;21.92;59.51;100378.38;5056758;28;20021;-37
2023/07/15 00:49:15;;;;;;;3.08;1.30;;;;;;;21.98;59.41;100382.59;5055828;28;20024;-37
2023/07/15 00:51:44;;;;;;;4.28;1.55;;;;;;;21.98;57.57;100371.59;5055830;28;20100;-37
2023/07/15 00:54:13;;;;;;;3.15;1.48;;;;;;;21.97;57.91;100386.50;5055209;28;20062;-37
2023/07/15 00:56:40;;;;;;;3.65;1.25;;;;;;;22.01;58.20;100379.22;5055196;28;20029;-37
2023/07/15 00:59:08;;;;;;;4.88;1.40;;;;;;;22.02;58.29;100389.09;5056114;28;20060;-37
2023/07/15 01:01:34;;;;;;;3.65;1.50;;;;;;;21.97;58.05;100388.44;5055642;28;20056;-37
2023/07/15 01:04:00;;;;;;;3.85;1.65;;;;;;;21.99;58.19;100388.91;5055529;28;20032;-37
2023/07/15 01:06:25;;;;;;;5.55;1.30;;;;;;;21.92;58.25;100380.31;5055852;28;20025;-37
2023/07/15 01:08:50;;;;;;;4.07;1.40;;;;;;;21.93;58.12;100392.94;5055240;28;20029;-37
2023/07/15 01:11:16;;;;;;;3.95;1.70;;;;;;;21.96;58.47;100401.41;5055513;28;20029;-37
2023/07/15 01:13:41;;;;;;;3.35;1.58;;;;;;;21.93;58.36;100395.72;5055375;28;20044;-37
2023/07/15 01:16:07;;;;;;;2.30;1.20;;;;;;;21.87;58.22;100399.75;5054798;28;20102;-37
2023/07/15 01:18:32;;;;;;;3.67;1.60;;;;;;;21.89;58.56;100406.53;5054977;28;20025;-37
2023/07/15 01:20:59;;;;;;;2.80;1.50;;;;;;;21.83;58.67;100399.56;5055305;28;20477;-37
2023/07/15 01:23:28;;;;;;;3.45;1.50;;;;;;;21.75;59.34;100398.38;5053687;28;20366;-37
2023/07/15 01:25:54;;;;;;;1.95;1.20;;;;;;;21.69;60.12;100394.13;5055170;28;20029;-37
2023/07/15 01:28:19;;;;;;;4.22;1.50;;;;;;;21.63;59.27;100392.66;5055630;28;20036;-37
2023/07/15 01:30:45;;;;;;;2.50;1.30;;;;;;;21.67;59.39;100395.56;5055418;28;20083;-37
2023/07/15 01:33:10;;;;;;;2.33;1.40;;;;;;;21.57;59.88;100378.22;5054702;28;20040;-37
2023/07/15 01:35:36;;;;;;;2.42;1.30;;;;;;;21.55;59.71;100385.16;5054850;28;20060;-37
2023/07/15 01:38:01;;;;;;;3.50;1.45;;;;;;;21.54;59.21;100395.34;5054633;28;20472;-37
2023/07/15 01:40:27;;;;;;;3.40;1.48;;;;;;;21.50;59.93;100394.38;5054589;28;20020;-37
2023/07/15 01:42:52;;;;;;;1.95;1.00;;;;;;;21.47;60.21;100405.19;5054558;28;20108;-37
2023/07/15 01:45:17;;;;;;;4.85;1.50;;;;;;;21.36;59.90;100390.06;5054486;28;20095;-37
2023/07/15 01:47:43;;;;;;;2.47;1.25;;;;;;;21.40;59.86;100407.56;5054542;28;20103;-37
2023/07/15 01:50:08;;;;;;;4.95;1.63;;;;;;;21.39;60.23;100408.69;5054443;28;20104;-37
2023/07/15 01:52:34;;;;;;;3.03;1.30;;;;;;;21.29;60.63;100415.25;5054919;28;20052;-37
2023/07/15 01:55:00;;;;;;;8.38;1.70;;;;;;;21.26;61.00;100410.34;5054646;28;20029;-37
2023/07/15 01:57:26;;;;;;;4.68;1.38;;;;;;;21.19;61.39;100410.00;5054414;28;20469;-37
2023/07/15 01:59:57;;;;;;;4.63;1.48;;;;;;;21.18;61.40;100413.84;5053954;28;20048;-37
2023/07/15 02:02:23;;;;;;;3.92;1.40;;;;;;;21.11;61.41;100413.47;5054516;28;20108;-37
2023/07/15 02:04:49;;;;;;;4.85;1.42;;;;;;;21.10;61.41;100407.16;5053830;28;20021;-37
2023/07/15 02:07:14;;;;;;;2.25;1.33;;;;;;;21.05;62.00;100416.34;5054706;28;20071;-37
2023/07/15 02:09:39;;;;;;;3.63;1.48;;;;;;;21.01;62.53;100431.03;5054612;28;20378;-37
2023/07/15 02:12:05;;;;;;;2.10;1.08;;;;;;;20.97;62.53;100419.03;5054886;28;20078;-37
2023/07/15 02:14:30;;;;;;;2.55;1.45;;;;;;;20.96;62.23;100420.16;5053994;28;20115;-37
2023/07/15 02:16:55;;;;;;;3.85;1.55;;;;;;;20.94;62.14;100425.16;5054492;28;20048;-37
2023/07/15 02:19:21;;;;;;;5.85;1.40;;;;;;;20.77;64.46;100418.38;5053532;28;20029;-37
2023/07/15 02:21:46;;;;;;;4.65;1.30;;;;;;;20.83;62.31;100419.88;5053871;28;20052;-37
2023/07/15 02:24:11;;;;;;;4.38;1.42;;;;;;;20.84;62.29;100420.72;5053578;28;20071;-37
2023/07/15 02:26:37;;;;;;;3.45;1.38;;;;;;;20.80;62.84;100422.44;5053904;28;20036;-37
2023/07/15 02:29:03;;;;;;;4.30;1.40;;;;;;;20.76;62.98;100426.94;5054331;28;20029;-37
2023/07/15 02:31:28;;;;;;;4.13;1.65;;;;;;;20.72;63.19;100429.47;5054292;28;20115;-37
2023/07/15 02:33:53;;;;;;;7.78;1.30;;;;;;;20.67;63.44;100418.59;5053368;28;20453;-37
2023/07/15 02:36:19;;;;;;;3.15;1.23;;;;;;;20.62;63.97;100423.41;5054282;28;20039;-37
2023/07/15 02:38:44;;;;;;;2.15;1.13;;;;;;;20.57;64.23;100433.38;5053466;28;20041;-37
2023/07/15 02:41:10;;;;;;;2.15;1.10;;;;;;;20.58;64.32;100431.44;5053615;28;20033;-37
2023/07/15 02:43:35;;;;;;;7.85;1.67;;;;;;;20.52;63.89;100440.91;5053260;28;20028;-37
2023/07/15 02:46:00;;;;;;;4.53;1.20;;;;;;;20.46;65.71;100425.63;5054360;28;20032;-37
2023/07/15 02:48:26;;;;;;;2.63;1.17;;;;;;;20.40;65.32;100421.34;5053212;28;20024;-37
2023/07/15 02:50:52;;;;;;;2.78;1.38;;;;;;;20.31;65.89;100413.84;5053465;28;20117;-37
2023/07/15 02:53:18;;;;;;;3.72;1.50;;;;;;;20.24;66.43;100418.13;5053099;28;20036;-37
2023/07/15 02:55:43;;;;;;;3.63;1.13;;;;;;;20.24;66.78;100421.66;5054008;28;20404;-37
2023/07/15 02:58:09;;;;;;;3.47;1.02;;;;;;;20.11;67.04;100394.25;5053244;28;20083;-37
2023/07/15 03:00:36;;;;;;;3.38;1.55;;;;;;;20.13;67.45;100411.22;5053981;28;20361;-37
2023/07/15 03:03:02;;;;;;;2.50;1.27;;;;;;;20.11;67.71;100410.72;5053392;28;20071;-37
2023/07/15 03:05:28;;;;;;;3.63;1.30;;;;;;;20.02;67.08;100410.63;5053931;28;20060;-37
2023/07/15 03:07:54;;;;;;;2.42;1.50;;;;;;;20.06;68.01;100422.59;5053050;28;20025;-37
2023/07/15 03:10:20;;;;;;;4.00;1.23;;;;;;;20.00;68.28;100410.09;5053294;28;20035;-37
2023/07/15 03:12:48;;;;;;;3.78;1.50;;;;;;;19.90;68.93;100408.34;5054106;28;20033;-37
2023/07/15 03:15:14;;;;;;;5.00;2.05;;;;;;;19.80;69.62;100416.78;5053190;28;20028;-37
2023/07/15 03:17:40;;;;;;;3.28;1.35;;;;;;;19.72;71.18;100417.50;5054059;28;20400;-37
2023/07/15 03:20:14;;;;;;;4.07;1.35;;;;;;;19.75;72.69;100417.69;5053409;28;20029;-37
2023/07/15 03:22:41;;;;;;;3.28;1.80;;;;;;;19.66;72.23;100413.19;5053745;28;20397;-37
2023/07/15 03:25:08;;;;;;;2.53;1.50;;;;;;;19.60;71.34;100420.72;5053114;28;20115;-38
2023/07/15 03:27:33;;;;;;;4.25;1.50;;;;;;;19.64;71.63;100418.19;5053749;28;20377;-37
2023/07/15 03:29:58;;;;;;;1.65;1.20;;;;;;;19.58;71.22;100417.44;5052887;28;20029;-37
2023/07/15 03:32:24;;;;;;;2.88;1.60;;;;;;;19.56;73.18;100417.72;5052901;28;20029;-37
2023/07/15 03:34:49;;;;;;;3.22;1.48;;;;;;;19.49;72.17;100413.75;5053133;28;20427;-37
2023/07/15 03:37:15;;;;;;;5.63;1.70;;;;;;;19.43;74.53;100420.44;5052695;28;20029;-37
2023/07/15 03:39:40;;;;;;;4.90;1.33;;;;;;;19.52;72.42;100421.34;5052580;28;20116;-37
2023/07/15 03:42:05;;;;;;;3.63;1.60;;;;;;;19.37;72.09;100421.63;5053025;28;20039;-37
2023/07/15 03:44:31;;;;;;;2.95;1.08;;;;;;;19.33;74.72;100415.13;5053534;28;20021;-37
2023/07/15 03:46:57;;;;;;;3.55;1.40;;;;;;;19.38;72.90;100420.53;5056483;28;20106;-37
2023/07/15 03:49:23;;;;;;;3.63;1.27;;;;;;;19.32;73.79;100418.97;5056405;28;20029;-37
2023/07/15 03:51:49;;;;;;;2.25;1.35;;;;;;;19.30;74.24;100419.28;5057028;28;20032;-37
2023/07/15 03:54:14;;;;;;;2.88;1.30;;;;;;;19.28;76.93;100405.88;5057232;28;20523;-37
2023/07/15 03:56:40;;;;;;;4.05;1.48;;;;;;;19.26;80.50;100421.78;5057435;28;20032;-37
2023/07/15 03:59:05;;;;;;;3.28;1.60;;;;;;;19.31;77.05;100404.44;5056754;28;20048;-37
2023/07/15 04:01:31;;;;;;;3.83;1.50;;;;;;;19.30;74.67;100419.28;5057075;28;20090;-37
2023/07/15 04:03:56;;;;;;;2.15;1.13;;;;;;;19.21;75.12;100415.59;5056439;28;20052;-37
2023/07/15 04:06:22;;;;;;;4.20;1.30;;;;;;;19.21;77.10;100421.06;5056993;28;20025;-37
2023/07/15 04:08:49;;;;;;;3.08;1.50;;;;;;;19.22;75.50;100415.28;5056957;28;20412;-37
2023/07/15 04:11:16;;;;;;;4.47;1.48;;;;;;;19.18;77.75;100417.00;5056649;28;20025;-37
2023/07/15 04:13:41;;;;;;;2.30;1.15;;;;;;;19.24;78.29;100404.03;5056078;28;20056;-37
2023/07/15 04:16:06;;;;;;;3.63;1.25;;;;;;;19.25;77.18;100417.44;5056674;28;20063;-37
2023/07/15 04:18:32;;;;;;;3.30;1.58;;;;;;;19.14;77.92;100413.22;5055851;28;20075;-37
2023/07/15 04:20:57;;;;;;;3.20;1.42;;;;;;;19.12;80.53;100415.44;5056756;28;20025;-37
2023/07/15 04:23:23;;;;;;;3.90;1.42;;;;;;;19.16;78.32;100412.94;5055909;28;20051;-37
2023/07/15 04:25:48;;;;;;;8.35;1.77;;;;;;;19.01;77.69;100403.84;5056129;28;20083;-37
2023/07/15 04:28:14;;;;;;;3.25;1.42;;;;;;;19.18;80.90;100424.38;5056343;28;20104;-37
2023/07/15 04:30:39;;;;;;;4.22;1.70;;;;;;;19.20;77.89;100420.25;5056885;28;20060;-37
2023/07/15 04:33:05;;;;;;;3.40;1.85;;;;;;;19.18;78.45;100432.63;5055935;28;20107;-37
2023/07/15 04:35:30;;;;;;;4.93;1.50;;;;;;;19.24;78.89;100432.25;5055910;28;20038;-37
2023/07/15 04:37:56;;;;;;;3.00;1.50;;;;;;;19.23;77.74;100438.03;5055839;28;20031;-37
2023/07/15 04:40:21;;;;;;;5.25;1.45;;;;;;;19.29;76.37;100440.41;5055708;28;20029;-37
2023/07/15 04:42:46;;;;;;;5.13;1.50;;;;;;;19.33;76.22;100429.66;5056089;28;20028;-37
2023/07/15 04:45:12;;;;;;;2.75;1.50;;;;;;;19.41;76.30;100441.84;5056033;28;20458;-37
2023/07/15 04:47:39;;;;;;;2.63;1.30;;;;;;;19.46;76.51;100417.91;5056563;28;20076;-37
2023/07/15 04:50:05;;;;;;;3.42;1.73;;;;;;;19.54;77.19;100438.34;5055607;28;20033;-37
2023/07/15 04:52:30;;;;;;;2.60;1.40;;;;;;;19.59;77.69;100440.19;5056209;28;20115;-37
2023/07/15 04:54:55;;;;;;;7.20;1.55;;;;;;;19.59;77.29;100446.47;5055843;28;20064;-37
2023/07/15 04:57:21;;;;;;;3.80;1.23;;;;;;;19.76;78.94;100446.75;5055118;28;20123;-37
2023/07/15 04:59:48;;;;;;;4.45;1.50;;;;;;;19.67;79.26;100426.63;5055908;28;20041;-37
2023/07/15 05:02:14;;;;;;;5.40;1.70;;;;;;;19.87;78.92;100435.59;5055410;28;20029;-37
2023/07/15 05:04:39;;;;;;;3.45;1.52;;;;;;;19.97;77.36;100433.47;5055114;28;20311;-37
2023/07/15 05:07:04;;;;;;;4.95;1.45;;;;;;;20.02;77.16;100435.31;5055609;28;20029;-37
2023/07/15 05:09:31;;;;;;;2.88;1.42;;;;;;;20.15;77.95;100436.41;5055261;28;20055;-37
2023/07/15 05:11:57;;;;;;;3.60;1.85;;;;;;;20.17;76.42;100434.19;5055507;28;20530;-37
2023/07/15 05:14:22;;;;;;;4.70;1.75;;;;;;;20.29;76.27;100435.28;5055146;28;20040;-37
2023/07/15 05:16:48;;;;;;;5.57;1.75;;;;;;;20.37;75.22;100432.97;5055743;28;20029;-37
2023/07/15 05:19:13;;;;;;;5.38;1.30;;;;;;;20.42;75.18;100435.59;5055816;28;20471;-37
2023/07/15 05:21:38;;;;;;;1.73;1.20;;;;;;;20.48;73.60;100440.69;5054836;28;20024;-37
2023/07/15 05:24:04;;;;;;;4.97;1.55;;;;;;;20.51;73.92;100440.09;5054717;28;20059;-37
2023/07/15 05:26:30;;;;;;;5.50;1.90;;;;;;;20.56;74.60;100444.69;5055284;28;20044;-37
2023/07/15 05:28:56;;;;;;;3.10;1.60;;;;;;;20.60;73.66;100442.13;5054965;28;20086;-37
2023/07/15 05:31:21;;;;;;;4.43;1.52;;;;;;;20.66;73.52;100438.16;5054917;28;20055;-37
2023/07/15 05:33:46;;;;;;;4.70;1.40;;;;;;;20.68;73.97;100444.94;5054536;28;20028;-37
2023/07/15 05:36:13;;;;;;;4.05;1.60;;;;;;;20.74;73.55;100446.47;5055299;28;20033;-37
2023/07/15 05:38:43;;;;;;;5.30;1.92;;;;;;;20.75;72.64;100450.84;5055176;28;20036;-37
2023/07/15 05:41:10;;;;;;;4.28;1.95;;;;;;;20.80;72.87;100448.00;5054969;28;20028;-37
2023/07/15 05:43:35;;;;;;;2.53;1.50;;;;;;;20.94;73.85;100450.72;5054179;28;20024;-37
2023/07/15 05:46:01;;;;;;;3.40;1.52;;;;;;;20.89;73.92;100436.28;5054619;28;20572;-37
2023/07/15 05:48:26;;;;;;;4.38;1.40;;;;;;;21.03;73.12;100434.25;5054523;28;20029;-37
2023/07/15 05:50:52;;;;;;;2.53;1.27;;;;;;;21.06;73.31;100431.72;5054436;28;20032;-37
2023/07/15 05:53:18;;;;;;;3.45;1.40;;;;;;;21.12;74.15;100446.16;5054672;28;20033;-37
2023/07/15 05:55:43;;;;;;;7.93;1.65;;;;;;;21.23;73.79;100457.75;5054573;28;20036;-37
2023/07/15 05:58:11;;;;;;;3.88;1.55;;;;;;;21.31;73.13;100460.56;5052566;28;20473;-37
2023/07/15 06:00:39;;;;;;;4.28;1.60;;;;;;;21.36;73.83;100459.63;5053772;28;20523;-37
2023/07/15 06:03:04;;;;;;;4.47;1.50;;;;;;;21.48;73.00;100451.63;5054156;28;20056;-37
2023/07/15 06:05:30;;;;;;;4.82;1.80;;;;;;;21.50;73.36;100456.81;5053640;28;20470;-37
2023/07/15 06:07:55;;;;;;;2.90;1.40;;;;;;;21.45;73.57;100449.50;5053702;28;20029;-37
2023/07/15 06:10:21;;;;;;;4.40;1.55;;;;;;;21.58;74.48;100456.06;5053758;28;20033;-37
2023/07/15 06:12:46;;;;;;;3.75;1.48;;;;;;;21.68;73.77;100442.06;5054113;28;20113;-37
2023/07/15 06:15:11;;;;;;;3.42;1.63;;;;;;;21.78;73.13;100450.03;5054232;28;20032;-37
2023/07/15 06:17:38;;;;;;;4.32;1.83;;;;;;;21.91;72.70;100447.50;5053435;28;20108;-37
2023/07/15 06:20:04;;;;;;;4.82;1.60;;;;;;;21.98;72.86;100447.88;5053539;28;20021;-37
2023/07/15 06:22:29;;;;;;;1.90;1.15;;;;;;;22.10;72.83;100459.09;5053599;28;20115;-37
2023/07/15 06:24:55;;;;;;;3.25;1.60;;;;;;;22.16;73.66;100457.06;5053535;28;20068;-37
2023/07/15 06:27:20;;;;;;;4.78;1.75;;;;;;;22.28;73.35;100451.75;5053810;28;20116;-37
2023/07/15 06:29:48;;;;;;;2.95;1.48;;;;;;;22.30;71.97;100461.31;5053459;28;20104;-38
2023/07/15 06:32:14;;;;;;;3.10;1.77;;;;;;;22.40;72.60;100464.88;5054011;28;20017;-37
2023/07/15 06:34:39;;;;;;;5.53;1.27;;;;;;;22.35;71.19;100443.81;5053107;28;20457;-37
2023/07/15 06:37:04;;;;;;;2.28;1.27;;;;;;;22.49;71.58;100440.94;5054199;28;20028;-37
2023/07/15 06:39:30;;;;;;;4.50;1.60;;;;;;;22.53;72.29;100447.44;5053811;28;20052;-37
2023/07/15 06:41:55;;;;;;;4.60;1.42;;;;;;;22.55;72.53;100442.44;5053893;28;20079;-38
2023/07/15 06:44:21;;;;;;;7.00;1.50;;;;;;;22.77;72.24;100456.06;5052972;28;20036;-37
2023/07/15 06:46:46;;;;;;;2.35;1.30;;;;;;;22.88;71.87;100457.41;5053824;28;20078;-37
2023/07/15 06:49:11;;;;;;;3.83;1.35;;;;;;;;;;5053222;28;20477;-37
2023/07/15 06:51:37;;;;;;;3.42;1.60;;;;;;;22.79;72.88;100462.09;5053517;28;20413;-37
2023/07/15 06:54:02;;;;;;;4.57;1.30;;;;;;;22.77;74.24;100469.03;5053162;28;20033;-37
2023/07/15 06:56:28;;;;;;;2.45;1.23;;;;;;;22.77;74.09;100458.81;5053598;28;20029;-37
2023/07/15 06:58:54;;;;;;;2.05;1.00;;;;;;;22.82;74.60;100455.91;5052986;28;20049;-37
2023/07/15 07:01:19;;;;;;;3.00;1.20;;;;;;;22.73;76.40;100444.06;5053953;28;20084;-37
2023/07/15 07:03:45;;;;;;;3.72;1.27;;;;;;;22.82;77.29;100436.63;5052818;28;20037;-37
2023/07/15 07:06:10;;;;;;;2.35;1.30;;;;;;;22.87;76.93;100446.69;5053608;28;20029;-38
2023/07/15 07:08:36;;;;;;;3.40;1.50;;;;;;;23.01;76.80;100441.03;5052786;28;20025;-38
2023/07/15 07:11:02;;;;;;;3.38;1.38;;;;;;;23.09;77.40;100454.03;5053058;28;20033;-38
2023/07/15 07:13:27;;;;;;;4.38;1.50;;;;;;;23.17;78.22;100449.63;5052954;28;20025;-38
2023/07/15 07:15:57;;;;;;;2.78;1.27;;;;;;;23.14;77.08;100445.59;5053857;28;20025;-38
2023/07/15 07:18:22;;;;;;;2.53;1.25;;;;;;;23.13;77.04;100442.03;5052883;28;20029;-38
2023/07/15 07:20:48;;;;;;;2.95;1.00;;;;;;;23.28;77.28;100454.50;5055356;28;20036;-38
2023/07/15 07:23:13;;;;;;;1.88;1.13;;;;;;;23.28;77.64;100443.47;5057732;28;20113;-38
2023/07/15 07:25:41;;;;;;;3.05;1.30;;;;;;;23.28;77.71;100445.44;5057236;28;20025;-38
2023/07/15 07:28:07;;;;;;;2.80;1.30;;;;;;;23.50;77.21;100453.50;5057207;28;20037;-38
2023/07/15 07:30:32;;;;;;;4.13;1.00;;;;;;;23.55;76.52;100455.28;5057570;28;20464;-38
2023/07/15 07:32:58;;;;;;;3.47;1.10;;;;;;;23.63;76.25;100463.56;5056857;28;20120;-38
2023/07/15 07:35:23;;;;;;;2.80;1.00;;;;;;;23.54;77.46;100459.19;5057080;28;20032;-38
2023/07/15 07:37:49;;;;;;;3.63;1.20;;;;;;;23.60;76.43;100466.94;5057297;28;20029;-38
2023/07/15 07:40:14;;;;;;;2.17;0.95;;;;;;;23.65;76.62;100463.25;5056865;28;20025;-38
2023/07/15 07:42:40;;;;;;;3.30;1.23;;;;;;;23.71;75.77;100470.19;5057241;28;20033;-37
2023/07/15 07:45:14;;;;;;;4.18;1.25;;;;;;;23.75;76.80;100468.41;5056838;28;20373;-37
2023/07/15 07:47:40;;;;;;;2.75;0.93;;;;;;;23.80;75.52;100467.44;5057162;28;20033;-37
2023/07/15 07:50:06;;;;;;;2.28;0.95;;;;;;;23.96;76.79;100465.78;5056740;28;20040;-37
2023/07/15 07:52:31;;;;;;;2.67;1.17;;;;;;;24.09;75.19;100473.00;5057209;28;20048;-37
2023/07/15 07:54:57;;;;;;;3.42;1.30;;;;;;;24.11;73.65;100469.94;5056593;28;20465;-37
2023/07/15 07:57:22;;;;;;;3.88;1.00;;;;;;;24.21;74.26;100458.53;5056592;28;20488;-37
2023/07/15 07:59:47;;;;;;;2.03;1.00;;;;;;;24.33;73.73;100466.09;5056349;28;20045;-37
2023/07/15 08:02:13;;;;;;;2.28;1.00;;;;;;;24.32;73.28;100457.00;5056839;28;20036;-37
2023/07/15 08:04:38;;;;;;;2.70;0.73;;;;;;;24.48;74.08;100450.94;5056241;28;20027;-37
2023/07/15 08:07:03;;;;;;;3.55;1.02;;;;;;;24.46;73.27;100440.22;5056272;28;20090;-37
2023/07/15 08:09:29;;;;;;;2.45;0.88;;;;;;;24.43;73.95;100460.22;5056432;28;20043;-37
2023/07/15 08:11:54;;;;;;;6.47;1.13;;;;;;;24.40;73.90;100463.63;5056060;28;20048;-37
2023/07/15 08:14:20;;;;;;;2.92;1.00;;;;;;;24.45;74.77;100462.63;5056255;28;20083;-37
2023/07/15 08:16:45;;;;;;;4.18;0.80;;;;;;;24.50;74.86;100477.09;5056600;28;20064;-37
2023/07/15 08:19:11;;;;;;;1.50;0.70;;;;;;;24.42;73.67;100458.59;5055869;28;20028;-37
2023/07/15 08:21:37;;;;;;;2.78;0.70;;;;;;;24.34;73.52;100464.94;5056453;28;20112;-37
2023/07/15 08:24:02;;;;;;;2.70;0.98;;;;;;;24.36;75.12;100462.72;5056088;28;20432;-37
2023/07/15 08:26:29;;;;;;;3.17;0.90;;;;;;;24.31;74.04;100479.44;5056019;28;20068;-37
2023/07/15 08:29:01;;;;;;;2.97;0.80;;;;;;;24.28;74.22;100483.66;5055995;28;20036;-37
2023/07/15 08:31:26;;;;;;;3.05;1.00;;;;;;;24.29;74.29;100482.53;5056426;28;20473;-37
2023/07/15 08:33:52;;;;;;;1.90;0.82;;;;;;;24.31;74.66;100491.31;5055900;28;20047;-37
2023/07/15 08:36:17;;;;;;;1.42;0.80;;;;;;;24.30;74.39;100486.94;5056766;28;20052;-37
2023/07/15 08:38:42;;;;;;;3.25;1.00;;;;;;;24.31;75.14;100483.00;5055503;28;20511;-37
2023/07/15 08:41:09;;;;;;;1.75;1.00;;;;;;;24.50;73.77;100490.94;5056207;28;20423;-37
2023/07/15 08:43:34;;;;;;;3.08;0.90;;;;;;;24.50;74.36;100484.56;5055559;28;20067;-37
2023/07/15 08:46:06;;;;;;;2.08;1.02;;;;;;;24.65;76.03;100492.31;5056014;28;20033;-37
2023/07/15 08:48:32;;;;;;;5.35;0.95;;;;;;;24.66;73.87;100493.91;5056303;28;20056;-37
2023/07/15 08:50:59;;;;;;;4.15;1.27;;;;;;;24.72;74.92;100492.56;5055277;28;20032;-37
2023/07/15 08:53:27;;;;;;;2.13;1.00;;;;;;;24.72;74.35;100509.16;5055553;28;20017;-37
2023/07/15 08:55:55;;;;;;;4.25;1.10;;;;;;;24.62;73.58;100515.06;5056395;28;20456;-37
2023/07/15 08:58:21;;;;;;;4.60;1.00;;;;;;;24.64;74.59;100508.09;5055144;28;20053;-37
2023/07/15 09:00:46;;;;;;;5.10;0.98;;;;;;;24.59;73.97;100515.72;5055773;28;20441;-37
2023/07/15 09:03:12;;;;;;;2.42;1.10;;;;;;;24.51;73.73;100516.59;5055242;28;20060;-37
2023/07/15 09:05:38;;;;;;;3.45;1.10;;;;;;;24.36;74.42;100518.78;5055984;28;20083;-37
2023/07/15 09:08:12;;;;;;;1.95;1.00;;;;;;;24.26;75.32;100526.59;5055363;28;20057;-37
2023/07/15 09:10:54;;;;;;;5.32;1.00;;;;;;;24.13;75.00;100526.47;5055886;28;20025;-37
2023/07/15 09:13:23;;;;;;;2.63;1.10;;;;;;;24.01;75.75;100526.34;5055232;28;20024;-37
2023/07/15 09:15:49;;;;;;;2.53;1.17;;;;;;;23.96;75.82;100531.22;5054863;28;20490;-37
2023/07/15 09:18:15;;;;;;;2.67;1.10;;;;;;;23.84;77.27;100521.66;5055097;28;20108;-37
2023/07/15 09:20:40;;;;;;;2.08;0.90;;;;;;;23.77;78.36;100529.66;5054840;28;20032;-37
2023/07/15 09:23:06;;;;;;;2.72;1.20;;;;;;;23.77;77.22;100528.84;5055619;28;20167;-37
2023/07/15 09:25:31;;;;;;;4.88;1.30;;;;;;;23.77;77.41;100515.03;5055002;28;20434;-37
2023/07/15 09:27:57;;;;;;;5.10;1.33;;;;;;;23.88;74.19;100530.91;5055000;28;20080;-37
2023/07/15 09:30:23;;;;;;;7.57;1.40;;;;;;;24.07;74.59;100530.56;5054855;28;20037;-37
2023/07/15 09:32:48;;;;;;;4.35;1.20;;;;;;;24.61;72.79;100521.75;5054607;28;20086;-37
2023/07/15 09:35:14;;;;;;;6.00;1.27;;;;;;;24.76;69.55;100535.00;5054812;28;20029;-37
2023/07/15 09:37:40;;;;;;;5.95;1.75;;;;;;;24.67;68.39;100523.19;5054544;28;20028;-37
2023/07/15 09:40:08;;;;;;;3.03;1.30;;;;;;;24.70;68.60;100532.78;5054887;28;20043;-37
2023/07/15 09:42:53;;;;;;;3.28;1.27;;;;;;;24.64;68.65;100521.06;5054619;28;20071;-37
2023/07/15 09:45:31;;;;;;;2.03;1.08;;;;;;;24.47;69.19;100541.31;5054654;28;20057;-37
2023/07/15 09:47:56;;;;;;;3.72;1.15;;;;;;;24.23;68.56;100528.06;5054803;28;20029;-37
2023/07/15 09:50:23;;;;;;;4.13;1.55;;;;;;;24.13;70.56;100540.28;5054418;28;20029;-37
2023/07/15 09:52:51;;;;;;;5.15;1.55;;;;;;;24.07;71.16;100551.84;5054494;28;20119;-37
2023/07/15 09:55:17;;;;;;;4.57;1.40;;;;;;;24.02;70.78;100560.31;5054476;28;20366;-37
2023/07/15 09:57:43;;;;;;;3.63;1.10;;;;;;;23.95;71.83;100562.72;5054404;28;20035;-37
2023/07/15 10:00:09;;;;;;;2.53;1.23;;;;;;;23.97;71.26;100575.09;5054845;28;20068;-37
2023/07/15 10:02:42;;;;;;;3.10;1.23;;;;;;;23.87;72.74;100579.00;5053948;28;20148;-37
2023/07/15 10:05:13;;;;;;;4.40;1.63;;;;;;;23.72;73.44;100565.72;5054496;28;20416;-37
2023/07/15 10:07:42;;;;;;;2.67;1.13;;;;;;;23.68;72.61;100575.78;5054115;28;20037;-37
2023/07/15 10:10:08;;;;;;;2.38;1.17;;;;;;;23.55;74.97;100566.47;5054189;28;20059;-37
2023/07/15 10:12:35;;;;;;;2.95;1.30;;;;;;;23.53;75.14;100574.28;5054956;28;20374;-37
2023/07/15 10:15:02;;;;;;;3.85;1.40;;;;;;;23.37;77.42;100554.59;5054018;28;20033;-37
2023/07/15 10:17:35;;;;;;;3.58;1.20;;;;;;;23.36;76.55;100568.75;5054348;28;20033;-37
2023/07/15 10:20:10;;;;;;;2.33;1.30;;;;;;;23.34;78.50;100560.00;5053899;28;20035;-37
2023/07/15 10:22:36;;;;;;;4.25;1.45;;;;;;;23.27;78.96;100549.41;5053951;28;20025;-37
2023/07/15 10:25:03;;;;;;;5.40;1.45;;;;;;;23.26;79.81;100542.28;5053817;28;20033;-37
2023/07/15 10:27:31;;;;;;;2.65;1.27;;;;;;;23.23;82.36;100537.44;5054435;28;20079;-37
2023/07/15 10:30:26;;;;;;;5.32;1.45;;;;;;;23.25;82.63;100537.91;5053801;28;20091;-37
2023/07/15 10:32:58;;;;;;;3.65;1.33;;;;;;;23.13;83.96;100533.03;5049169;28;20123;-37
2023/07/15 10:35:25;;;;;;;3.17;1.40;;;;;;;23.15;84.97;100529.13;5054564;28;20029;-37
2023/07/15 10:37:51;;;;;;;2.25;1.27;;;;;;;23.13;85.00;100529.44;5054591;28;20032;-37
2023/07/15 10:40:54;;;;;;;2.35;1.20;;;;;;;23.14;82.91;100542.13;5053511;28;20501;-37
2023/07/15 10:43:43;;;;;;;2.53;1.30;;;;;;;23.15;83.86;100529.13;5054404;28;20056;-37
2023/07/15 10:46:11;;;;;;;2.22;1.20;;;;;;;23.25;85.23;100523.31;5053260;28;20124;-37
2023/07/15 10:48:38;;;;;;;2.75;1.10;;;;;;;23.29;83.00;100514.06;5053253;28;20053;-37
2023/07/15 10:51:06;;;;;;;4.47;1.60;;;;;;;23.36;84.47;100524.59;5053543;28;20017;-37
2023/07/15 10:53:33;;;;;;;2.30;1.10;;;;;;;23.41;84.77;100534.66;5053438;28;20116;-37
2023/07/15 10:56:00;;;;;;;2.85;1.20;;;;;;;23.41;83.34;100529.94;5053388;28;20033;-37
2023/07/15 10:58:26;;;;;;;3.15;1.20;;;;;;;23.44;81.41;100536.78;5053300;28;20052;-36
2023/07/15 11:01:00;;;;;;;3.00;1.27;;;;;;;23.44;80.18;100550.56;5053704;28;20029;-37
2023/07/15 11:03:27;;;;;;;2.63;1.20;;;;;;;23.56;79.96;100550.72;5053969;28;20025;-37
2023/07/15 11:06:01;;;;;;;4.95;1.13;;;;;;;23.60;80.37;100555.28;5053663;28;20040;-37
2023/07/15 11:08:28;;;;;;;2.50;1.20;;;;;;;23.51;80.42;100545.38;5053295;28;20067;-37
2023/07/15 11:11:01;;;;;;;2.67;1.50;;;;;;;23.40;80.93;100539.38;5053937;28;20025;-37
2023/07/15 11:13:28;;;;;;;2.65;1.10;;;;;;;23.49;82.18;100553.19;5053289;28;20029;-37
2023/07/15 11:15:53;;;;;;;3.10;1.20;;;;;;;23.47;82.32;100541.63;5053365;28;20071;-37
2023/07/15 11:18:21;;;;;;;3.35;1.23;;;;;;;23.54;81.03;100547.50;5053141;28;20465;-37
2023/07/15 11:20:48;;;;;;;4.82;1.52;;;;;;;23.54;80.51;100547.50;5052996;28;20469;-37
2023/07/15 11:23:14;;;;;;;4.28;1.73;;;;;;;23.66;82.02;100533.06;5053169;28;20111;-37
2023/07/15 11:25:40;;;;;;;3.08;1.30;;;;;;;23.81;81.28;100536.09;5053230;28;20082;-37